createdAt,value
2023-01-11T00:02:07.067Z,-0.10
2023-01-11T00:04:34.336Z,-0.20
2023-01-11T00:07:01.575Z,-0.20
2023-01-11T00:09:28.804Z,-0.20
2023-01-11T00:11:56.145Z,-0.30
2023-01-11T00:14:23.647Z,-0.30
2023-01-11T00:16:51.796Z,-0.30
2023-01-11T00:19:18.918Z,-0.40
2023-01-11T00:21:48.881Z,-0.40
2023-01-11T00:24:15.844Z,-0.50
2023-01-11T00:26:45.065Z,-0.50
2023-01-11T00:29:15.061Z,-0.50
2023-01-11T00:31:42.483Z,-0.50
2023-01-11T00:34:09.507Z,-0.60
2023-01-11T00:36:36.787Z,-0.60
2023-01-11T00:39:05.619Z,-0.70
2023-01-11T00:41:51.057Z,-0.70
2023-01-11T00:44:36.669Z,-0.70
2023-01-11T00:47:22.152Z,-0.70
2023-01-11T00:49:49.140Z,-0.70
2023-01-11T00:52:17.313Z,-0.80
2023-01-11T00:54:44.336Z,-0.80
2023-01-11T00:57:11.583Z,-0.80
2023-01-11T00:59:41.445Z,-0.80
2023-01-11T01:02:09.321Z,-0.80
2023-01-11T01:04:36.837Z,-0.90
2023-01-11T01:07:04.235Z,-0.90
2023-01-11T01:09:31.605Z,-1.00
2023-01-11T01:11:58.801Z,-1.00
2023-01-11T01:14:26.113Z,-1.00
2023-01-11T01:16:54.222Z,-1.00
2023-01-11T01:19:22.476Z,-1.00
2023-01-11T01:21:50.032Z,-1.00
2023-01-11T01:24:19.468Z,-1.10
2023-01-11T01:26:46.503Z,-1.10
2023-01-11T01:29:14.824Z,-1.10
2023-01-11T01:31:44.821Z,-1.10
2023-01-11T01:34:12.389Z,-1.10
2023-01-11T01:36:39.542Z,-1.10
2023-01-11T01:39:07.555Z,-1.20
2023-01-11T01:41:36.430Z,-1.20
2023-01-11T01:44:22.387Z,-1.20
2023-01-11T01:47:03.158Z,-1.20
2023-01-11T01:49:30.995Z,-1.30
2023-01-11T01:51:58.431Z,-1.30
2023-01-11T01:54:28.260Z,-1.30
2023-01-11T01:56:57.483Z,-1.30
2023-01-11T01:59:26.761Z,-1.40
2023-01-11T02:01:54.160Z,-1.40
2023-01-11T02:04:30.333Z,-1.50
2023-01-11T02:07:18.058Z,-1.50
2023-01-11T02:09:51.140Z,-1.50
2023-01-11T02:12:18.919Z,-1.50
2023-01-11T02:14:47.526Z,-1.50
2023-01-11T02:17:15.223Z,-1.50
2023-01-11T02:19:42.356Z,-1.50
2023-01-11T02:22:23.567Z,-1.60
2023-01-11T02:25:02.835Z,-1.60
2023-01-11T02:27:30.084Z,-1.60
2023-01-11T02:29:57.380Z,-1.70
2023-01-11T02:32:30.544Z,-1.60
2023-01-11T02:35:00.824Z,-1.60
2023-01-11T02:37:32.597Z,-1.60
2023-01-11T02:40:04.447Z,-1.60
2023-01-11T02:42:53.348Z,-1.60
2023-01-11T02:45:36.682Z,-1.60
2023-01-11T02:48:22.532Z,-1.60
2023-01-11T02:51:07.998Z,-1.60
2023-01-11T02:53:35.065Z,-1.60
2023-01-11T02:56:06.128Z,-1.60
2023-01-11T02:58:34.672Z,-1.70
2023-01-11T03:01:02.152Z,-1.70
2023-01-11T03:03:29.792Z,-1.70
2023-01-11T03:05:59.147Z,-1.80
2023-01-11T03:08:26.324Z,-1.80
2023-01-11T03:10:56.475Z,-1.80
2023-01-11T03:13:29.787Z,-1.80
2023-01-11T03:16:15.970Z,-1.80
2023-01-11T03:18:48.742Z,-1.90
2023-01-11T03:21:15.788Z,-1.90
2023-01-11T03:23:45.980Z,-1.90
2023-01-11T03:26:35.511Z,-1.90
2023-01-11T03:29:10.453Z,-2.00
2023-01-11T03:31:40.679Z,-1.90
2023-01-11T03:34:19.975Z,-2.00
2023-01-11T03:36:52.528Z,-2.00
2023-01-11T03:39:29.924Z,-2.00
2023-01-11T03:41:58.625Z,-2.10
2023-01-11T03:44:27.291Z,-2.10
2023-01-11T03:47:08.224Z,-2.10
2023-01-11T03:49:38.310Z,-2.10
2023-01-11T03:52:07.077Z,-2.20
2023-01-11T03:54:34.126Z,-2.20
2023-01-11T03:57:12.633Z,-2.20
2023-01-11T03:59:40.519Z,-2.20
2023-01-11T04:02:21.376Z,-2.30
2023-01-11T04:04:53.464Z,-2.30
2023-01-11T04:07:34.025Z,-2.30
2023-01-11T04:10:07.137Z,-2.30
2023-01-11T04:12:44.873Z,-2.30
2023-01-11T04:15:15.197Z,-2.40
2023-01-11T04:17:46.094Z,-2.40
2023-01-11T04:20:20.084Z,-2.40
2023-01-11T04:22:47.667Z,-2.50
2023-01-11T04:25:23.530Z,-2.50
2023-01-11T04:27:55.805Z,-2.50
2023-01-11T04:30:23.350Z,-2.50
2023-01-11T04:32:53.024Z,-2.60
2023-01-11T04:35:22.606Z,-2.60
2023-01-11T04:38:09.154Z,-2.60
2023-01-11T04:40:44.084Z,-2.60
2023-01-11T04:43:19.347Z,-2.60
2023-01-11T04:45:49.582Z,-2.70
2023-01-11T04:48:20.688Z,-2.70
2023-01-11T04:50:54.938Z,-2.70
2023-01-11T04:53:27.973Z,-2.80
2023-01-11T04:55:59.732Z,-2.80
2023-01-11T04:58:28.184Z,-2.80
2023-01-11T05:00:59.909Z,-2.80
2023-01-11T05:03:47.566Z,-2.80
2023-01-11T05:06:32.131Z,-2.80
2023-01-11T05:09:04.127Z,-2.80
2023-01-11T05:11:37.542Z,-2.90
2023-01-11T05:14:09.240Z,-2.90
2023-01-11T05:16:46.799Z,-2.90
2023-01-11T05:19:17.788Z,-3.00
2023-01-11T05:21:54.566Z,-3.00
2023-01-11T05:27:11.839Z,-3.00
2023-01-11T05:29:43.064Z,-3.10
2023-01-11T05:32:17.927Z,-3.10
2023-01-11T05:34:52.824Z,-3.10
2023-01-11T05:37:27.931Z,-3.10
2023-01-11T05:40:04.962Z,-3.10
2023-01-11T05:42:32.722Z,-3.10
2023-01-11T05:45:22.466Z,-3.20
2023-01-11T05:47:52.438Z,-3.20
2023-01-11T05:50:19.750Z,-3.20
2023-01-11T05:52:46.771Z,-3.20
2023-01-11T05:55:13.902Z,-3.30
2023-01-11T05:57:44.344Z,-3.20
2023-01-11T06:00:12.199Z,-3.30
2023-01-11T06:02:39.465Z,-3.20
2023-01-11T06:05:06.950Z,-3.20
2023-01-11T06:07:33.961Z,-3.30
2023-01-11T06:10:01.179Z,-3.30
2023-01-11T06:12:28.316Z,-3.30
2023-01-11T06:14:55.467Z,-3.30
2023-01-11T06:17:22.533Z,-3.30
2023-01-11T06:19:49.566Z,-3.40
2023-01-11T06:22:16.648Z,-3.30
2023-01-11T06:24:43.655Z,-3.30
2023-01-11T06:27:10.854Z,-3.40
2023-01-11T06:29:37.859Z,-3.40
2023-01-11T06:32:05.207Z,-3.40
2023-01-11T06:34:32.204Z,-3.40
2023-01-11T06:36:59.319Z,-3.40
2023-01-11T06:39:26.256Z,-3.40
2023-01-11T06:41:53.297Z,-3.40
2023-01-11T06:44:20.303Z,-3.30
2023-01-11T06:46:47.402Z,-3.30
2023-01-11T06:49:14.339Z,-3.30
2023-01-11T06:51:41.289Z,-3.30
2023-01-11T06:54:08.341Z,-3.30
2023-01-11T06:56:35.280Z,-3.30
2023-01-11T06:59:02.383Z,-3.30
2023-01-11T07:01:30.648Z,-3.30
2023-01-11T07:03:57.852Z,-3.20
2023-01-11T07:06:24.983Z,-3.20
2023-01-11T07:08:52.158Z,-3.10
2023-01-11T07:11:19.231Z,-3.10
2023-01-11T07:13:46.677Z,-3.10
2023-01-11T07:16:13.757Z,-2.60
2023-01-11T07:18:40.850Z,-1.90
2023-01-11T07:21:08.230Z,-1.30
2023-01-11T07:23:35.213Z,-0.70
2023-01-11T07:26:02.401Z,-0.10
2023-01-11T07:28:30.780Z,0.40
2023-01-11T07:30:59.983Z,0.90
2023-01-11T07:33:27.292Z,1.30
2023-01-11T07:35:54.963Z,1.80
2023-01-11T07:38:22.112Z,2.30
2023-01-11T07:40:49.384Z,2.70
2023-01-11T07:43:18.428Z,2.70
2023-01-11T07:45:48.145Z,2.30
2023-01-11T07:48:16.136Z,1.80
2023-01-11T07:50:45.074Z,1.40
2023-01-11T07:53:12.727Z,1.10
2023-01-11T07:55:40.560Z,1.00
2023-01-11T07:58:08.482Z,0.90
2023-01-11T08:00:35.485Z,1.70
2023-01-11T08:03:04.803Z,2.20
2023-01-11T08:05:31.840Z,2.00
2023-01-11T08:07:58.941Z,1.80
2023-01-11T08:10:25.877Z,1.80
2023-01-11T08:13:12.736Z,2.50
2023-01-11T08:15:42.720Z,2.90
2023-01-11T08:18:11.511Z,2.70
2023-01-11T08:20:40.241Z,2.80
2023-01-11T08:23:08.409Z,2.60
2023-01-11T08:25:35.714Z,2.30
2023-01-11T08:28:04.174Z,2.10
2023-01-11T08:30:32.433Z,2.00
2023-01-11T08:33:01.047Z,1.90
2023-01-11T08:35:28.332Z,1.90
2023-01-11T08:37:55.332Z,1.80
2023-01-11T08:40:24.269Z,1.70
2023-01-11T08:42:55.351Z,1.60
2023-01-11T08:45:23.105Z,1.50
2023-01-11T08:47:52.055Z,1.50
2023-01-11T08:50:19.665Z,1.50
2023-01-11T08:52:47.556Z,1.40
2023-01-11T08:55:14.575Z,1.30
2023-01-11T08:57:41.614Z,1.40
2023-01-11T09:00:08.988Z,1.40
2023-01-11T09:02:36.241Z,1.40
2023-01-11T09:05:03.297Z,1.50
2023-01-11T09:07:30.319Z,1.50
2023-01-11T09:09:57.314Z,1.70
2023-01-11T09:12:24.346Z,1.70
2023-01-11T09:14:51.378Z,1.80
2023-01-11T09:17:18.276Z,1.90
2023-01-11T09:19:47.723Z,1.90
2023-01-11T09:22:17.250Z,2.00
2023-01-11T09:24:47.010Z,2.00
2023-01-11T09:27:18.283Z,2.00
2023-01-11T09:29:55.907Z,2.00
2023-01-11T09:32:24.095Z,2.10
2023-01-11T09:35:05.087Z,2.10
2023-01-11T09:37:46.255Z,2.20
2023-01-11T09:40:24.982Z,2.20
2023-01-11T09:43:07.616Z,2.30
2023-01-11T09:45:38.923Z,2.40
2023-01-11T09:48:33.349Z,2.50
2023-01-11T09:51:05.513Z,2.50
2023-01-11T09:53:41.957Z,2.50
2023-01-11T09:56:25.764Z,2.60
2023-01-11T09:59:09.518Z,2.60
2023-01-11T10:01:47.115Z,2.70
2023-01-11T10:04:33.558Z,2.70
2023-01-11T10:07:10.535Z,2.70
2023-01-11T10:18:30.325Z,2.90
2023-01-11T10:18:50.070Z,2.90
2023-01-11T10:21:29.644Z,3.00
2023-01-11T10:24:12.255Z,3.00
2023-01-11T10:26:42.479Z,2.90
2023-01-11T10:29:14.998Z,3.10
2023-01-11T10:32:06.411Z,3.10
2023-01-11T10:34:36.746Z,3.20
2023-01-11T10:37:25.242Z,3.20
2023-01-11T10:40:22.887Z,3.30
2023-01-11T10:42:57.227Z,3.30
2023-01-11T10:45:27.690Z,3.30
2023-01-11T10:47:57.316Z,3.40
2023-01-11T10:50:27.785Z,3.50
2023-01-11T10:53:05.120Z,3.60
2023-01-11T10:55:40.015Z,3.70
2023-01-11T10:58:18.695Z,3.70
2023-01-11T11:00:58.701Z,3.70
2023-01-11T11:03:32.504Z,3.80
2023-01-11T11:06:06.001Z,3.80
2023-01-11T11:08:48.998Z,3.80
2023-01-11T11:11:22.099Z,3.90
2023-01-11T11:13:49.254Z,3.90
2023-01-11T11:16:22.538Z,4.00
2023-01-11T11:18:50.954Z,4.10
2023-01-11T11:21:23.007Z,4.10
2023-01-11T11:24:01.692Z,4.20
2023-01-11T11:26:32.829Z,4.30
2023-01-11T11:29:02.069Z,4.30
2023-01-11T11:31:30.138Z,4.30
2023-01-11T11:33:57.809Z,4.40
2023-01-11T11:36:25.757Z,4.40
2023-01-11T11:39:09.148Z,4.50
2023-01-11T11:42:52.895Z,4.60
2023-01-11T11:45:17.387Z,4.70
2023-01-11T11:48:10.581Z,4.70
2023-01-11T11:50:45.211Z,4.70
2023-01-11T11:53:30.654Z,4.70
2023-01-11T11:56:24.156Z,4.80
2023-01-11T11:58:54.444Z,4.80
2023-01-11T12:01:30.007Z,4.80
2023-01-11T12:04:23.803Z,4.80
2023-01-11T12:07:04.637Z,4.90
2023-01-11T12:09:32.738Z,4.90
2023-01-11T12:12:01.467Z,4.90
2023-01-11T12:14:35.367Z,4.90
2023-01-11T12:17:23.021Z,4.90
2023-01-11T12:19:50.195Z,5.00
2023-01-11T12:22:21.860Z,5.00
2023-01-11T12:25:04.982Z,5.10
2023-01-11T12:27:44.294Z,5.10
2023-01-11T12:30:20.233Z,5.20
2023-01-11T12:32:59.536Z,5.20
2023-01-11T12:35:32.747Z,5.30
2023-01-11T12:37:59.841Z,5.30
2023-01-11T12:40:26.943Z,5.30
2023-01-11T12:43:08.421Z,5.20
2023-01-11T12:45:54.299Z,5.30
2023-01-11T12:48:24.886Z,5.20
2023-01-11T12:50:57.274Z,5.30
2023-01-11T12:53:34.803Z,5.20
2023-01-11T12:56:16.913Z,5.20
2023-01-11T12:58:50.031Z,5.20
2023-01-11T13:01:26.336Z,5.20
2023-01-11T13:04:01.508Z,5.30
2023-01-11T13:06:43.069Z,5.20
2023-01-11T13:09:26.640Z,5.30
2023-01-11T13:11:56.573Z,5.30
2023-01-11T13:14:53.310Z,5.40
2023-01-11T13:17:39.559Z,5.40
2023-01-11T13:20:28.040Z,5.50
2023-01-11T13:23:09.595Z,5.40
2023-01-11T13:25:39.450Z,5.40
2023-01-11T13:28:20.151Z,5.40
2023-01-11T13:30:51.084Z,5.40
2023-01-11T13:33:20.758Z,5.40
2023-01-11T13:35:50.236Z,5.50
2023-01-11T13:38:17.281Z,5.50
2023-01-11T13:40:50.077Z,5.50
2023-01-11T13:43:46.669Z,5.50
2023-01-11T13:46:21.393Z,5.60
2023-01-11T13:49:03.536Z,5.60
2023-01-11T13:51:33.521Z,5.60
2023-01-11T13:54:05.516Z,5.60
2023-01-11T13:56:35.873Z,5.70
2023-01-11T13:59:15.160Z,5.70
2023-01-11T14:01:51.474Z,5.80
2023-01-11T14:04:22.587Z,5.80
2023-01-11T14:06:55.651Z,5.80
2023-01-11T14:09:30.483Z,5.80
2023-01-11T14:12:01.240Z,5.70
2023-01-11T14:14:43.620Z,5.70
2023-01-11T14:17:33.045Z,5.70
2023-01-11T14:20:17.043Z,5.70
2023-01-11T14:23:05.748Z,5.70
2023-01-11T14:25:44.393Z,5.70
2023-01-11T14:28:44.935Z,5.70
2023-01-11T14:31:30.809Z,5.60
2023-01-11T14:34:18.513Z,5.60
2023-01-11T14:36:56.502Z,5.60
2023-01-11T14:39:47.616Z,5.70
2023-01-11T14:42:31.978Z,5.70
2023-01-11T14:45:08.563Z,5.70
2023-01-11T14:47:44.976Z,5.70
2023-01-11T14:50:21.711Z,5.70
2023-01-11T14:52:51.134Z,5.70
2023-01-11T14:55:23.337Z,5.70
2023-01-11T14:57:56.588Z,5.70
2023-01-11T15:00:43.915Z,5.60
2023-01-11T15:03:11.005Z,5.60
2023-01-11T15:05:46.893Z,5.60
2023-01-11T15:08:14.104Z,5.60
2023-01-11T15:10:42.061Z,5.50
2023-01-11T15:13:13.048Z,5.50
2023-01-11T15:15:58.929Z,5.50
2023-01-11T15:18:27.102Z,5.50
2023-01-11T15:20:55.782Z,5.40
2023-01-11T15:23:23.505Z,5.40
2023-01-11T15:25:59.838Z,5.30
2023-01-11T15:28:35.511Z,5.30
2023-01-11T15:31:10.114Z,5.20
2023-01-11T15:33:54.109Z,5.20
2023-01-11T15:37:13.072Z,5.10
2023-01-11T15:39:55.106Z,5.10
2023-01-11T15:42:45.734Z,5.00
2023-01-11T15:45:24.673Z,4.90
2023-01-11T15:48:20.005Z,4.80
2023-01-11T15:51:23.969Z,4.70
2023-01-11T15:57:41.629Z,4.80
2023-01-11T16:00:39.697Z,4.80
2023-01-11T16:03:49.876Z,4.80
2023-01-11T16:06:35.199Z,4.80
2023-01-11T16:12:57.564Z,4.80
2023-01-11T16:15:49.364Z,4.70
2023-01-11T16:18:23.324Z,4.60
2023-01-11T16:21:21.015Z,4.60
2023-01-11T16:23:55.078Z,4.60
2023-01-11T16:26:26.076Z,4.50
2023-01-11T16:29:15.955Z,4.60
2023-01-11T16:32:16.141Z,4.60
2023-01-11T16:34:58.086Z,4.50
2023-01-11T16:37:35.878Z,4.40
2023-01-11T16:40:14.114Z,4.10
2023-01-11T16:42:51.652Z,4.10
2023-01-11T16:45:49.844Z,4.20
2023-01-11T16:48:23.569Z,4.20
2023-01-11T16:51:07.261Z,4.20
2023-01-11T16:54:05.153Z,4.20
2023-01-11T16:56:38.602Z,4.20
2023-01-11T16:59:29.019Z,4.20
2023-01-11T17:07:50.464Z,3.80
2023-01-11T17:10:48.623Z,3.90
2023-01-11T17:13:40.384Z,3.90
2023-01-11T17:16:13.949Z,3.90
2023-01-11T17:18:57.290Z,3.90
2023-01-11T17:21:39.532Z,3.80
2023-01-11T17:24:13.229Z,3.80
2023-01-11T17:27:02.694Z,3.70
2023-01-11T17:29:51.584Z,3.70
2023-01-11T17:32:43.715Z,3.70
2023-01-11T17:35:24.189Z,3.70
2023-01-11T17:38:00.850Z,3.70
2023-01-11T17:43:52.177Z,3.60
2023-01-11T17:46:29.801Z,3.60
2023-01-11T17:49:10.726Z,3.60
2023-01-11T17:51:47.544Z,3.60
2023-01-11T17:54:24.238Z,3.60
2023-01-11T17:57:01.936Z,3.50
2023-01-11T17:59:39.797Z,3.60
2023-01-11T18:02:19.326Z,3.60
2023-01-11T18:05:05.509Z,3.60
2023-01-11T18:07:42.363Z,3.60
2023-01-11T18:10:27.282Z,3.50
2023-01-11T18:13:01.512Z,3.50
2023-01-11T18:15:47.286Z,3.50
2023-01-11T18:18:57.761Z,3.50
2023-01-11T18:22:09.170Z,3.40
2023-01-11T18:25:00.479Z,3.50
2023-01-11T18:27:36.834Z,3.50
2023-01-11T18:30:34.530Z,3.50
2023-01-11T18:33:10.803Z,3.50
2023-01-11T18:35:48.599Z,3.50
2023-01-11T18:41:32.405Z,3.50
2023-01-11T18:44:16.753Z,3.60
2023-01-11T18:47:12.931Z,3.50
2023-01-11T18:49:43.412Z,3.40
2023-01-11T18:52:56.240Z,3.40
2023-01-11T18:58:36.918Z,3.50
2023-01-11T19:01:10.731Z,3.50
2023-01-11T19:03:47.097Z,3.60
2023-01-11T19:06:25.368Z,3.60
2023-01-11T19:09:06.575Z,3.60
2023-01-11T19:11:41.844Z,3.60
2023-01-11T19:14:15.299Z,3.60
2023-01-11T19:16:45.575Z,3.60
2023-01-11T19:19:40.859Z,3.50
2023-01-11T19:22:37.548Z,3.40
2023-01-11T19:25:14.104Z,3.40
2023-01-11T19:27:57.863Z,3.40
2023-01-11T19:30:45.825Z,3.50
2023-01-11T19:33:25.293Z,3.50
2023-01-11T19:35:59.940Z,3.50
2023-01-11T19:38:59.547Z,3.50
2023-01-11T19:41:55.155Z,3.60
2023-01-11T19:44:39.178Z,3.60
2023-01-11T19:47:14.091Z,3.60
2023-01-11T19:49:55.192Z,3.60
2023-01-11T19:52:28.599Z,3.60
2023-01-11T19:55:13.392Z,3.60
2023-01-11T19:57:53.576Z,3.50
2023-01-11T20:00:28.225Z,3.50
2023-01-11T20:02:59.301Z,3.50
2023-01-11T20:05:37.629Z,3.50
2023-01-11T20:08:09.567Z,3.50
2023-01-11T20:11:00.455Z,3.50
2023-01-11T20:13:39.445Z,3.50
2023-01-11T20:16:34.080Z,3.40
2023-01-11T20:22:24.594Z,3.40
2023-01-11T20:24:59.267Z,3.50
2023-01-11T20:27:31.862Z,3.40
2023-01-11T20:30:41.233Z,3.50
2023-01-11T20:33:33.586Z,3.40
2023-01-11T20:36:10.552Z,3.40
2023-01-11T20:38:38.746Z,3.50
2023-01-11T20:41:46.194Z,3.40
2023-01-11T20:44:26.260Z,3.30
2023-01-11T20:49:51.295Z,3.30
2023-01-11T20:52:30.464Z,3.30
2023-01-11T20:55:15.513Z,3.40
2023-01-11T20:57:46.249Z,3.30
2023-01-11T21:00:32.202Z,3.40
2023-01-11T21:03:02.103Z,3.30
2023-01-11T21:05:47.420Z,3.30
2023-01-11T21:08:18.221Z,3.30
2023-01-11T21:10:58.400Z,3.40
2023-01-11T21:13:36.542Z,3.40
2023-01-11T21:16:15.655Z,3.40
2023-01-11T21:18:49.638Z,3.40
2023-01-11T21:21:40.172Z,3.40
2023-01-11T21:24:18.228Z,3.40
2023-01-11T21:26:49.885Z,3.40
2023-01-11T21:29:20.299Z,3.30
2023-01-11T21:32:15.591Z,3.30
2023-01-11T21:34:49.381Z,3.30
2023-01-11T21:37:24.041Z,3.30
2023-01-11T21:39:57.790Z,3.30
2023-01-11T21:42:54.583Z,3.30
2023-01-11T21:45:31.731Z,3.30
2023-01-11T21:48:06.238Z,3.40
2023-01-11T21:50:37.771Z,3.40
2023-01-11T21:53:08.530Z,3.40
2023-01-11T21:55:39.345Z,3.40
2023-01-11T21:58:10.541Z,3.40
2023-01-11T22:00:44.285Z,3.40
2023-01-11T22:03:17.395Z,3.40
2023-01-11T22:05:52.648Z,3.40
2023-01-11T22:08:23.532Z,3.40
2023-01-11T22:11:04.747Z,3.40
2023-01-11T22:13:33.699Z,3.40
2023-01-11T22:16:12.378Z,3.40
2023-01-11T22:18:50.049Z,3.40
2023-01-11T22:21:20.303Z,3.50
2023-01-11T22:23:52.060Z,3.50
2023-01-11T22:26:25.358Z,3.50
2023-01-11T22:29:14.954Z,3.50
2023-01-11T22:31:47.914Z,3.50
2023-01-11T22:34:23.576Z,3.50
2023-01-11T22:36:56.889Z,3.40
2023-01-11T22:39:25.033Z,3.50
2023-01-11T22:42:05.055Z,3.50
2023-01-11T22:44:58.030Z,3.50
2023-01-11T22:47:27.467Z,3.50
2023-01-11T22:50:06.375Z,3.60
2023-01-11T22:52:44.602Z,3.60
2023-01-11T22:55:17.255Z,3.60
2023-01-11T22:57:49.492Z,3.60
2023-01-11T23:00:16.957Z,3.60
2023-01-11T23:02:44.295Z,3.60
2023-01-11T23:05:16.165Z,3.50
2023-01-11T23:07:53.555Z,3.50
2023-01-11T23:10:29.347Z,3.50
2023-01-11T23:13:15.153Z,3.50
2023-01-11T23:15:42.395Z,3.60
2023-01-11T23:18:15.085Z,3.60
2023-01-11T23:20:42.435Z,3.60
2023-01-11T23:23:11.998Z,3.60
2023-01-11T23:25:39.265Z,3.60
2023-01-11T23:28:06.519Z,3.60
2023-01-11T23:30:36.968Z,3.50
2023-01-11T23:33:07.194Z,3.50
2023-01-11T23:35:54.714Z,3.60
2023-01-11T23:38:22.055Z,3.60
2023-01-11T23:41:08.247Z,3.60
2023-01-11T23:43:39.391Z,3.60
2023-01-11T23:46:25.170Z,3.50
2023-01-11T23:48:57.287Z,3.60
2023-01-11T23:51:29.759Z,3.50
2023-01-11T23:54:06.081Z,3.50
2023-01-11T23:56:34.157Z,3.50
2023-01-11T23:59:04.621Z,3.60
